Time;durP1;ratioP1;P1;durP2;ratioP2;P2;SDS_P1;SDS_P2;PMS_P1;PMS_P2;Temp;Humidity;BMP_temperature;BMP_pressure;BME280_temperature;BME280_humidity;BME280_pressure;Samples;Min_cycle;Max_cycle;Signal;HPM_P1;HPM_P2
2022/08/06 00:00:06;;;;;;;6.90;5.65;;;11.80;99.90;;;;;;4964583;28;20050;-84
2022/08/06 00:02:38;;;;;;;9.77;6.20;;;11.80;99.90;;;;;;4966658;28;20081;-85
2022/08/06 00:05:05;;;;;;;8.88;6.20;;;11.70;99.90;;;;;;4930373;28;20736;-84
2022/08/06 00:07:31;;;;;;;8.75;5.85;;;11.70;99.90;;;;;;4980784;28;20193;-85
2022/08/06 00:09:57;;;;;;;10.55;6.90;;;11.70;99.90;;;;;;4981873;28;20153;-85
2022/08/06 00:12:24;;;;;;;12.10;8.02;;;11.60;99.90;;;;;;4962995;28;20101;-84
2022/08/06 00:14:50;;;;;;;11.63;7.18;;;11.50;99.90;;;;;;4949341;28;20503;-85
2022/08/06 00:17:18;;;;;;;9.55;7.88;;;11.50;99.90;;;;;;4963267;28;20054;-84
2022/08/06 00:19:44;;;;;;;13.98;7.75;;;11.40;99.90;;;;;;4929741;28;20069;-84
2022/08/06 00:22:11;;;;;;;10.30;7.03;;;11.40;99.90;;;;;;4961017;28;20050;-84
2022/08/06 00:24:37;;;;;;;8.77;6.35;;;11.40;99.90;;;;;;4975079;28;20117;-84
2022/08/06 00:27:03;;;;;;;9.68;6.93;;;11.40;99.90;;;;;;4965466;28;20514;-84
2022/08/06 00:29:29;;;;;;;10.77;7.13;;;11.40;99.90;;;;;;4938290;28;20074;-84
2022/08/06 00:31:55;;;;;;;14.60;7.53;;;11.30;99.90;;;;;;4951456;28;20090;-84
2022/08/06 00:34:21;;;;;;;10.02;7.60;;;11.30;99.90;;;;;;4980845;28;20049;-84
2022/08/06 00:36:48;;;;;;;9.50;7.00;;;11.30;99.90;;;;;;4977480;28;20047;-84
2022/08/06 00:39:14;;;;;;;13.15;7.28;;;11.30;99.90;;;;;;5005682;28;20062;-84
2022/08/06 00:41:40;;;;;;;8.90;6.72;;;11.30;99.90;;;;;;4973440;28;20023;-83
2022/08/06 00:44:09;;;;;;;9.45;7.13;;;11.30;99.90;;;;;;4995129;28;21116;-84
2022/08/06 00:46:35;;;;;;;12.20;7.57;;;11.30;99.90;;;;;;5003362;28;20037;-84
2022/08/06 00:49:01;;;;;;;11.98;8.43;;;11.30;99.90;;;;;;4991027;28;20079;-84
2022/08/06 00:51:27;;;;;;;9.05;7.57;;;11.20;99.90;;;;;;4985368;28;20050;-84
2022/08/06 00:53:53;;;;;;;7.72;6.65;;;11.30;99.90;;;;;;4960644;28;20048;-85
2022/08/06 00:56:20;;;;;;;9.68;6.97;;;11.20;99.90;;;;;;4969495;28;20046;-84
2022/08/06 00:58:46;;;;;;;9.73;7.15;;;11.20;99.90;;;;;;4996899;28;20108;-84
2022/08/06 01:01:12;;;;;;;6.97;6.22;;;11.20;99.90;;;;;;4952725;28;20349;-84
2022/08/06 01:03:38;;;;;;;8.73;6.05;;;11.10;99.90;;;;;;4969219;28;20050;-84
2022/08/06 01:06:04;;;;;;;9.57;6.63;;;11.00;99.90;;;;;;4980971;28;20144;-84
2022/08/06 01:08:31;;;;;;;9.63;7.20;;;11.00;99.90;;;;;;4967805;28;20054;-84
2022/08/06 01:10:57;;;;;;;10.25;6.95;;;10.90;99.90;;;;;;4985598;28;20153;-85
2022/08/06 01:13:23;;;;;;;8.80;6.45;;;10.70;99.90;;;;;;4984017;28;20053;-84
2022/08/06 01:15:55;;;;;;;9.55;7.45;;;10.70;99.90;;;;;;4936227;28;20422;-84
2022/08/06 01:18:38;;;;;;;9.98;7.03;;;10.60;99.90;;;;;;4996577;28;20050;-85
2022/08/06 01:21:30;;;;;;;10.95;6.60;;;10.60;99.90;;;;;;4983772;28;20058;-85
2022/08/06 01:24:31;;;;;;;11.27;7.25;;;10.60;99.90;;;;;;4984894;28;20748;-85
2022/08/06 01:27:13;;;;;;;8.77;6.68;;;10.60;99.90;;;;;;4927366;28;20555;-85
2022/08/06 01:29:46;;;;;;;9.70;6.70;;;10.60;99.90;;;;;;4987819;28;20133;-84
2022/08/06 01:32:15;;;;;;;10.50;6.00;;;10.70;99.90;;;;;;4966343;28;20526;-84
2022/08/06 01:34:45;;;;;;;9.50;6.28;;;10.70;99.90;;;;;;4977934;28;20047;-85
2022/08/06 01:37:17;;;;;;;7.72;5.95;;;10.70;99.90;;;;;;4998103;28;20279;-84
2022/08/06 01:39:47;;;;;;;7.15;5.65;;;10.70;99.90;;;;;;4995675;28;20513;-85
2022/08/06 01:42:18;;;;;;;7.90;5.30;;;10.70;99.90;;;;;;4983905;28;20065;-84
2022/08/06 01:44:48;;;;;;;7.07;5.03;;;10.70;99.90;;;;;;4983885;28;20380;-85
2022/08/06 01:47:17;;;;;;;7.35;5.63;;;10.60;99.90;;;;;;4966686;28;20136;-85
2022/08/06 01:49:48;;;;;;;7.03;5.50;;;10.60;99.90;;;;;;4971015;28;20042;-84
2022/08/06 01:52:16;;;;;;;6.45;5.35;;;10.60;99.90;;;;;;4968611;28;20645;-83
2022/08/06 01:54:48;;;;;;;8.63;5.35;;;10.50;99.90;;;;;;4979781;28;20485;-84
2022/08/06 01:57:18;;;;;;;7.03;4.78;;;10.50;99.90;;;;;;4994641;28;20116;-84
2022/08/06 01:59:48;;;;;;;8.45;5.05;;;10.40;99.90;;;;;;4971117;28;20128;-84
2022/08/06 02:02:20;;;;;;;7.50;5.38;;;10.40;99.90;;;;;;4995515;28;20387;-84
2022/08/06 02:04:51;;;;;;;7.43;5.10;;;10.40;99.90;;;;;;4982463;28;20061;-84
2022/08/06 02:07:21;;;;;;;10.25;5.72;;;10.40;99.90;;;;;;4980574;28;20053;-84
2022/08/06 02:09:50;;;;;;;8.40;4.72;;;10.30;99.90;;;;;;4961404;28;20087;-84
2022/08/06 02:12:23;;;;;;;9.23;4.90;;;10.30;99.90;;;;;;4958706;28;20034;-84
2022/08/06 02:14:59;;;;;;;6.93;5.05;;;10.30;99.90;;;;;;4963043;28;20081;-86
2022/08/06 02:17:29;;;;;;;8.20;4.40;;;10.30;99.90;;;;;;4971030;28;20065;-84
2022/08/06 02:20:00;;;;;;;7.75;4.55;;;10.20;99.90;;;;;;4962204;28;20619;-84
2022/08/06 02:22:33;;;;;;;5.90;4.13;;;10.10;99.90;;;;;;4966559;28;20060;-84
2022/08/06 02:25:13;;;;;;;6.75;4.20;;;10.10;99.90;;;;;;4982138;28;20042;-84
2022/08/06 02:27:49;;;;;;;6.63;4.35;;;10.20;99.90;;;;;;4965875;28;20053;-84
2022/08/06 02:30:16;;;;;;;6.90;3.70;;;10.20;99.90;;;;;;4934818;28;20042;-83
2022/08/06 02:32:42;;;;;;;5.43;4.65;;;10.20;99.90;;;;;;4963959;28;20038;-82
2022/08/06 02:35:09;;;;;;;8.38;4.22;;;10.20;99.90;;;;;;4950248;28;20100;-84
2022/08/06 02:37:55;;;;;;;6.47;4.68;;;10.10;99.90;;;;;;4966843;28;20050;-84
2022/08/06 02:40:37;;;;;;;8.27;4.40;;;10.10;99.90;;;;;;4976587;28;20043;-84
2022/08/06 02:43:04;;;;;;;;;;;10.00;99.90;;;;;;4967369;28;20046;-83
2022/08/06 02:45:54;;;;;;;7.30;4.55;;;10.00;99.90;;;;;;4947150;28;19933;-84
2022/08/06 02:48:27;;;;;;;6.10;5.07;;;10.00;99.90;;;;;;4945994;28;20082;-85
2022/08/06 02:50:57;;;;;;;9.65;4.90;;;9.90;99.90;;;;;;4933848;28;20039;-83
2022/08/06 02:53:34;;;;;;;5.97;4.38;;;9.90;99.90;;;;;;4964657;28;20129;-85
2022/08/06 02:56:07;;;;;;;6.95;4.10;;;9.80;99.90;;;;;;4928870;28;20057;-82
2022/08/06 02:58:37;;;;;;;6.68;4.15;;;9.80;99.90;;;;;;4952137;28;20144;-84
2022/08/06 03:01:08;;;;;;;7.28;4.63;;;9.80;99.90;;;;;;4965786;28;20050;-84
2022/08/06 03:03:39;;;;;;;7.28;4.80;;;9.80;99.90;;;;;;4979756;28;20414;-84
2022/08/06 03:06:07;;;;;;;5.28;4.05;;;9.70;99.90;;;;;;4944563;28;20455;-85
2022/08/06 03:08:35;;;;;;;5.75;4.35;;;9.70;99.90;;;;;;4971633;28;20104;-85
2022/08/06 03:11:02;;;;;;;6.65;5.03;;;9.70;99.90;;;;;;4969541;28;20038;-85
2022/08/06 03:13:29;;;;;;;8.63;4.72;;;9.70;99.90;;;;;;4967357;28;20149;-83
2022/08/06 03:15:58;;;;;;;5.60;4.53;;;9.70;99.90;;;;;;4943568;28;20508;-84
2022/08/06 03:18:26;;;;;;;6.00;4.43;;;9.70;99.90;;;;;;5013439;28;20053;-84
2022/08/06 03:20:54;;;;;;;7.30;4.85;;;9.70;99.90;;;;;;4985310;28;20058;-84
2022/08/06 03:23:21;;;;;;;6.30;4.22;;;9.70;99.90;;;;;;4951243;28;20046;-85
2022/08/06 03:26:01;;;;;;;5.57;4.90;;;9.70;99.90;;;;;;4942566;28;20042;-84
2022/08/06 03:28:27;;;;;;;5.15;4.30;;;9.80;99.90;;;;;;4981942;28;20054;-84
2022/08/06 03:30:54;;;;;;;8.45;4.20;;;9.70;99.90;;;;;;4950387;28;20145;-84
2022/08/06 03:33:22;;;;;;;7.22;4.32;;;9.80;99.90;;;;;;4964183;28;20046;-84
2022/08/06 03:35:49;;;;;;;7.50;4.20;;;9.80;99.90;;;;;;4965937;28;20055;-83
2022/08/06 03:38:16;;;;;;;7.40;4.57;;;9.80;99.90;;;;;;4979923;28;20049;-84
2022/08/06 03:40:45;;;;;;;5.30;4.80;;;9.80;99.90;;;;;;4939419;28;20336;-85
2022/08/06 03:43:11;;;;;;;5.75;4.13;;;9.80;99.90;;;;;;4993799;28;21367;-84
2022/08/06 03:45:42;;;;;;;6.07;4.75;;;9.90;99.90;;;;;;4972623;28;20053;-84
2022/08/06 03:48:12;;;;;;;5.32;4.53;;;9.90;99.90;;;;;;5013534;28;20490;-84
2022/08/06 03:50:43;;;;;;;6.60;4.95;;;9.90;99.90;;;;;;4987439;28;20581;-84
2022/08/06 03:53:23;;;;;;;6.38;5.78;;;9.90;99.90;;;;;;4952658;28;20066;-84
2022/08/06 03:55:54;;;;;;;6.63;4.32;;;9.90;99.90;;;;;;4966227;28;20815;-84
2022/08/06 03:58:22;;;;;;;8.32;4.88;;;9.90;99.90;;;;;;4967776;28;20046;-85
2022/08/06 04:01:07;;;;;;;6.65;4.53;;;9.90;99.90;;;;;;4972858;28;20125;-84
2022/08/06 04:03:35;;;;;;;6.20;4.72;;;9.90;99.90;;;;;;4980248;28;20136;-84
2022/08/06 04:06:02;;;;;;;7.40;4.68;;;9.90;99.90;;;;;;4959807;28;20613;-85
2022/08/06 04:08:30;;;;;;;6.30;4.88;;;9.90;99.90;;;;;;4944215;28;20055;-84
2022/08/06 04:10:58;;;;;;;7.15;4.15;;;9.90;99.90;;;;;;4991063;28;20038;-84
2022/08/06 04:13:25;;;;;;;6.57;4.22;;;9.90;99.90;;;;;;4957702;28;20085;-84
2022/08/06 04:15:53;;;;;;;7.80;4.47;;;9.90;99.90;;;;;;4964017;28;20122;-85
2022/08/06 04:18:28;;;;;;;4.68;4.18;;;9.80;99.90;;;;;;4987851;28;20093;-84
2022/08/06 04:21:00;;;;;;;4.65;4.03;;;9.80;99.90;;;;;;4971497;28;20054;-84
2022/08/06 04:23:26;;;;;;;5.28;3.83;;;9.70;99.90;;;;;;5003587;28;20418;-85
2022/08/06 04:25:56;;;;;;;4.20;3.25;;;9.70;99.90;;;;;;4968001;28;20043;-85
2022/08/06 04:28:24;;;;;;;3.55;3.25;;;9.70;99.90;;;;;;4970277;28;20042;-85
2022/08/06 04:30:52;;;;;;;4.38;3.30;;;9.70;99.90;;;;;;4984179;28;20045;-85
2022/08/06 04:33:22;;;;;;;4.55;3.20;;;9.60;99.90;;;;;;4970731;28;20042;-85
2022/08/06 04:35:49;;;;;;;4.45;3.38;;;9.70;99.90;;;;;;5013452;28;20046;-85
2022/08/06 04:38:17;;;;;;;5.22;3.42;;;9.60;99.90;;;;;;4984474;28;20057;-85
2022/08/06 04:40:45;;;;;;;4.05;3.65;;;9.60;99.90;;;;;;4990803;28;20109;-84
2022/08/06 04:43:15;;;;;;;6.15;5.45;;;9.70;99.90;;;;;;4968676;28;20057;-85
2022/08/06 04:45:43;;;;;;;7.32;4.82;;;9.70;99.90;;;;;;4974884;28;20045;-84
2022/08/06 04:48:11;;;;;;;6.68;5.07;;;9.70;99.90;;;;;;5005816;28;20164;-84
2022/08/06 04:50:38;;;;;;;7.85;5.53;;;9.70;99.90;;;;;;5001168;28;20445;-85
2022/08/06 04:53:09;;;;;;;7.57;5.25;;;9.70;99.90;;;;;;4969590;28;20042;-85
2022/08/06 04:55:36;;;;;;;5.27;4.77;;;9.80;99.90;;;;;;4973224;28;20124;-84
2022/08/06 04:58:04;;;;;;;5.45;4.30;;;9.80;99.90;;;;;;4955029;28;20368;-85
2022/08/06 05:00:39;;;;;;;5.82;4.15;;;9.90;99.90;;;;;;4989162;28;20132;-85
2022/08/06 05:03:06;;;;;;;4.72;3.67;;;9.90;99.90;;;;;;4987131;28;20065;-85
2022/08/06 05:05:38;;;;;;;4.72;3.92;;;9.90;99.90;;;;;;4994883;28;20039;-84
2022/08/06 05:08:07;;;;;;;5.82;4.00;;;10.10;99.90;;;;;;5004448;28;20069;-84
2022/08/06 05:10:46;;;;;;;7.18;4.55;;;10.20;99.90;;;;;;4972827;28;20046;-83
2022/08/06 05:13:14;;;;;;;5.30;4.43;;;10.40;99.90;;;;;;4976282;28;20380;-83
2022/08/06 05:15:44;;;;;;;6.85;3.92;;;10.80;99.90;;;;;;4975674;28;20055;-82
2022/08/06 05:18:16;;;;;;;5.18;3.80;;;11.30;99.90;;;;;;4974415;28;20085;-83
2022/08/06 05:20:46;;;;;;;;;;;11.80;99.90;;;;;;4990372;28;20663;-83
2022/08/06 05:23:34;;;;;;;6.00;3.33;;;12.20;99.90;;;;;;4983626;28;20366;-84
2022/08/06 05:26:04;;;;;;;6.00;3.22;;;12.60;99.90;;;;;;5000881;28;20050;-87
2022/08/06 05:28:31;;;;;;;4.43;3.00;;;12.80;99.90;;;;;;4949589;28;20053;-84
2022/08/06 05:30:57;;;;;;;3.80;2.83;;;13.30;99.90;;;;;;4952413;28;20128;-83
2022/08/06 05:33:37;;;;;;;5.45;2.78;;;13.40;99.90;;;;;;4964464;28;20121;-83
2022/08/06 05:36:06;;;;;;;4.65;2.90;;;13.60;99.90;;;;;;4994483;28;20052;-83
2022/08/06 05:38:41;;;;;;;2.97;2.67;;;13.80;99.90;;;;;;4962439;28;20081;-83
2022/08/06 05:41:10;;;;;;;5.63;2.63;;;13.80;99.90;;;;;;4981716;28;20056;-83
2022/08/06 05:43:39;;;;;;;5.50;3.33;;;14.00;99.90;;;;;;4965568;28;20050;-82
2022/08/06 05:46:11;;;;;;;3.88;2.72;;;14.20;99.90;;;;;;4979257;28;20066;-82
2022/08/06 05:48:48;;;;;;;3.53;2.60;;;14.40;99.90;;;;;;4976883;28;20046;-82
2022/08/06 05:51:26;;;;;;;3.40;2.50;;;14.40;99.90;;;;;;4975926;28;20042;-81
2022/08/06 05:54:19;;;;;;;4.65;2.55;;;14.60;99.90;;;;;;4964794;28;20132;-82
2022/08/06 05:56:48;;;;;;;5.53;2.20;;;14.90;99.90;;;;;;4991435;28;20096;-81
2022/08/06 05:59:24;;;;;;;3.38;2.08;;;15.00;99.90;;;;;;4961218;28;20046;-83
2022/08/06 06:01:51;;;;;;;10.18;7.22;;;15.30;99.90;;;;;;4948567;28;20046;-77
2022/08/06 06:04:18;;;;;;;5.03;2.38;;;15.40;99.90;;;;;;4979041;28;20049;-81
2022/08/06 06:06:45;;;;;;;5.20;2.88;;;15.60;99.90;;;;;;4961721;28;20133;-82
2022/08/06 06:09:13;;;;;;;10.18;8.57;;;15.80;99.90;;;;;;4952883;28;20379;-82
2022/08/06 06:11:41;;;;;;;21.30;19.05;;;15.90;99.90;;;;;;4961375;28;20811;-79
2022/08/06 06:14:26;;;;;;;7.85;5.05;;;16.10;99.90;;;;;;4964971;28;20423;-81
2022/08/06 06:17:11;;;;;;;6.80;1.77;;;16.20;99.90;;;;;;4964643;28;20121;-82
2022/08/06 06:19:52;;;;;;;4.53;2.78;;;16.40;99.90;;;;;;4978788;28;20077;-82
2022/08/06 06:22:28;;;;;;;2.58;1.70;;;16.50;99.90;;;;;;4983701;28;20038;-81
2022/08/06 06:25:01;;;;;;;5.78;2.08;;;16.60;99.90;;;;;;4950790;28;20045;-82
2022/08/06 06:27:42;;;;;;;3.67;2.03;;;16.80;99.90;;;;;;4979704;28;20062;-81
2022/08/06 06:30:16;;;;;;;23.30;20.65;;;16.90;99.90;;;;;;4980365;28;20610;-81
2022/08/06 06:32:49;;;;;;;5.63;5.03;;;17.10;99.90;;;;;;4963757;28;20042;-82
2022/08/06 06:35:30;;;;;;;22.48;19.67;;;17.20;99.90;;;;;;4989913;28;20517;-82
2022/08/06 06:38:17;;;;;;;8.10;5.70;;;17.40;99.90;;;;;;4947357;28;20070;-82
2022/08/06 06:40:49;;;;;;;19.67;17.63;;;17.50;99.90;;;;;;4964493;28;20797;-82
2022/08/06 06:43:15;;;;;;;4.28;3.38;;;17.80;99.90;;;;;;4963140;28;20650;-82
2022/08/06 06:46:00;;;;;;;5.20;3.42;;;18.00;99.90;;;;;;4969178;28;20554;-81
2022/08/06 06:48:44;;;;;;;7.32;3.38;;;18.20;99.90;;;;;;4977256;28;20050;-82
2022/08/06 06:51:20;;;;;;;8.05;5.15;;;18.50;99.90;;;;;;4962389;28;20530;-82
2022/08/06 06:53:48;;;;;;;10.48;6.40;;;18.80;99.90;;;;;;4981696;28;20048;-81
2022/08/06 06:56:19;;;;;;;2.45;1.35;;;19.20;99.90;;;;;;4916791;28;20050;-82
2022/08/06 06:59:02;;;;;;;6.65;4.30;;;19.10;99.90;;;;;;5013773;28;20074;-79
2022/08/06 07:01:31;;;;;;;6.95;5.15;;;19.40;99.90;;;;;;4963747;28;20140;-76
2022/08/06 07:04:00;;;;;;;5.35;3.33;;;19.40;99.90;;;;;;4993429;28;20056;-81
2022/08/06 07:06:28;;;;;;;27.05;24.35;;;19.50;99.90;;;;;;4973396;28;20529;-81
2022/08/06 07:08:56;;;;;;;5.05;2.03;;;19.50;99.90;;;;;;4972534;28;20483;-81
2022/08/06 07:11:25;;;;;;;4.75;2.22;;;19.80;99.90;;;;;;4947429;28;20039;-81
2022/08/06 07:13:53;;;;;;;4.10;1.88;;;20.00;99.90;;;;;;4993853;28;20427;-81
2022/08/06 07:16:22;;;;;;;5.25;1.80;;;20.10;99.90;;;;;;4960171;28;20047;-81
2022/08/06 07:18:50;;;;;;;10.60;9.55;;;20.50;99.90;;;;;;4981865;28;20054;-79
2022/08/06 07:21:18;;;;;;;4.70;2.33;;;20.60;99.90;;;;;;4962084;28;20146;-81
2022/08/06 07:23:48;;;;;;;3.17;1.05;;;20.80;99.90;;;;;;4975823;28;20416;-81
2022/08/06 07:26:17;;;;;;;30.20;26.73;;;21.00;99.90;;;;;;4960094;28;20103;-81
2022/08/06 07:28:44;;;;;;;43.45;39.13;;;21.30;99.90;;;;;;4957825;28;20043;-81
2022/08/06 07:31:11;;;;;;;4.88;3.13;;;21.60;99.90;;;;;;4927684;28;20031;-80
2022/08/06 07:33:41;;;;;;;3.88;1.00;;;21.80;99.90;;;;;;4941506;28;20047;-78
2022/08/06 07:36:08;;;;;;;4.55;1.73;;;21.80;99.90;;;;;;4957598;28;20061;-82
2022/08/06 07:38:40;;;;;;;3.00;1.42;;;22.10;99.90;;;;;;4950638;28;20057;-82
2022/08/06 07:41:08;;;;;;;4.00;1.30;;;22.30;99.90;;;;;;4974144;28;20094;-82
2022/08/06 07:43:52;;;;;;;8.50;6.47;;;22.30;99.90;;;;;;4958548;28;20233;-79
2022/08/06 07:46:22;;;;;;;5.72;4.13;;;22.60;99.90;;;;;;4959478;28;20065;-78
2022/08/06 07:48:59;;;;;;;13.90;12.32;;;22.90;99.90;;;;;;4975281;28;20655;-82
2022/08/06 07:51:29;;;;;;;5.15;2.90;;;23.20;99.90;;;;;;4934194;28;20241;-82
2022/08/06 07:53:56;;;;;;;12.07;9.90;;;23.20;99.90;;;;;;4942631;28;20098;-84
2022/08/06 07:56:25;;;;;;;8.20;6.32;;;23.00;99.90;;;;;;4955266;28;20380;-83
2022/08/06 07:58:52;;;;;;;4.72;1.58;;;23.00;99.90;;;;;;4959951;28;20054;-80
2022/08/06 08:01:19;;;;;;;5.05;1.80;;;23.30;99.90;;;;;;4943853;28;20054;-82
2022/08/06 08:06:39;;;;;;;4.28;3.08;;;23.70;98.90;;;;;;4958510;28;20055;-82
2022/08/06 08:09:14;;;;;;;2.40;0.63;;;23.70;98.20;;;;;;4928647;28;20058;-82
2022/08/06 08:11:43;;;;;;;46.90;42.58;;;24.00;93.10;;;;;;4999154;28;20177;-83
2022/08/06 08:14:10;;;;;;;3.33;0.90;;;24.40;97.70;;;;;;4962790;28;20043;-84
2022/08/06 08:16:37;;;;;;;6.55;5.28;;;24.00;95.50;;;;;;4944202;28;20503;-84
2022/08/06 08:19:32;;;;;;;3.20;0.60;;;24.40;92.00;;;;;;4931341;28;20046;-84
2022/08/06 08:22:10;;;;;;;4.97;2.55;;;23.60;90.40;;;;;;4960563;28;20054;-83
2022/08/06 08:24:38;;;;;;;2.78;0.70;;;23.80;88.00;;;;;;4978463;28;20492;-83
2022/08/06 08:27:08;;;;;;;2.83;0.70;;;23.90;92.30;;;;;;4962615;28;20901;-86
2022/08/06 08:29:35;;;;;;;3.83;0.80;;;24.00;90.40;;;;;;4992603;28;20146;-85
2022/08/06 08:32:01;;;;;;;2.20;0.57;;;24.10;88.90;;;;;;4995808;28;20061;-84
2022/08/06 08:34:27;;;;;;;5.07;3.38;;;24.60;90.50;;;;;;4991230;28;20051;-86
2022/08/06 08:36:53;;;;;;;17.83;15.77;;;23.90;91.40;;;;;;4962785;28;20042;-87
2022/08/06 08:39:20;;;;;;;2.65;0.70;;;23.30;92.40;;;;;;4963270;28;20046;-87
2022/08/06 08:42:06;;;;;;;18.05;15.27;;;22.60;81.00;;;;;;4932464;28;20046;-87
2022/08/06 08:44:33;;;;;;;3.55;0.98;;;21.80;92.60;;;;;;4991365;28;20350;-86
2022/08/06 08:47:00;;;;;;;1.95;0.47;;;21.80;94.80;;;;;;4977614;28;20483;-85
2022/08/06 08:50:03;;;;;;;3.13;0.95;;;22.40;95.80;;;;;;4972663;28;20059;-79
2022/08/06 08:52:33;;;;;;;2.67;0.50;;;23.10;91.50;;;;;;4941691;28;20125;-84
2022/08/06 08:55:03;;;;;;;2.17;0.70;;;23.70;91.20;;;;;;4947725;28;20854;-80
2022/08/06 08:57:30;;;;;;;2.78;0.68;;;24.20;84.90;;;;;;4998011;28;20534;-82
2022/08/06 08:59:57;;;;;;;2.85;0.70;;;24.40;79.10;;;;;;4997285;28;20050;-82
2022/08/06 09:02:24;;;;;;;1.38;0.60;;;24.60;78.80;;;;;;4981029;28;21537;-82
2022/08/06 09:04:52;;;;;;;2.33;0.80;;;24.80;70.20;;;;;;4970869;28;20046;-82
2022/08/06 09:07:19;;;;;;;1.63;0.65;;;25.30;65.70;;;;;;4950341;28;20058;-86
2022/08/06 09:09:46;;;;;;;3.10;1.00;;;25.60;64.70;;;;;;4967132;28;20046;-83
2022/08/06 09:12:12;;;;;;;9.38;6.00;;;25.80;64.30;;;;;;4935480;28;20188;-82
2022/08/06 09:14:43;;;;;;;3.75;0.90;;;26.00;62.90;;;;;;4973383;28;20048;-82
2022/08/06 09:17:09;;;;;;;;;;;25.90;59.50;;;;;;4966240;28;20091;-82
2022/08/06 09:19:35;;;;;;;2.10;1.05;;;25.80;55.90;;;;;;4982442;28;19918;-83
2022/08/06 09:22:01;;;;;;;3.35;1.40;;;25.90;59.00;;;;;;4974135;28;20128;-83
2022/08/06 09:24:27;;;;;;;3.38;1.15;;;26.40;59.00;;;;;;4955134;28;20085;-81
2022/08/06 09:27:14;;;;;;;3.17;0.90;;;26.60;56.70;;;;;;4990310;28;20076;-83
2022/08/06 09:29:53;;;;;;;3.72;1.40;;;26.50;53.40;;;;;;5023989;28;20050;-84
2022/08/06 09:32:42;;;;;;;6.03;5.05;;;26.50;54.90;;;;;;5001057;28;20065;-79
2022/08/06 09:35:23;;;;;;;3.08;1.35;;;26.60;53.70;;;;;;5006284;28;20041;-83
2022/08/06 09:37:58;;;;;;;3.42;1.40;;;26.00;53.50;;;;;;4981980;28;20054;-83
2022/08/06 09:40:24;;;;;;;5.60;3.38;;;25.60;55.20;;;;;;4984176;28;20049;-83
2022/08/06 09:42:52;;;;;;;11.98;10.32;;;25.90;55.30;;;;;;4978967;28;20046;-82
2022/08/06 09:45:23;;;;;;;4.28;2.70;;;26.70;54.70;;;;;;4959451;28;20046;-83
2022/08/06 09:48:00;;;;;;;2.70;1.60;;;26.50;53.60;;;;;;4963788;28;20092;-82
2022/08/06 09:50:42;;;;;;;3.58;1.73;;;26.30;53.50;;;;;;5005371;28;20038;-83
2022/08/06 09:53:08;;;;;;;2.63;1.50;;;26.70;52.90;;;;;;5004520;28;20046;-83
2022/08/06 09:55:35;;;;;;;3.88;1.60;;;26.10;51.90;;;;;;4961694;28;20050;-83
2022/08/06 09:58:01;;;;;;;3.92;1.80;;;25.20;52.70;;;;;;4975944;28;20046;-82
2022/08/06 10:00:33;;;;;;;4.57;1.65;;;24.60;55.00;;;;;;4953723;28;20234;-82
2022/08/06 10:03:01;;;;;;;5.32;1.50;;;24.80;57.10;;;;;;4983335;28;20060;-83
2022/08/06 10:05:29;;;;;;;2.67;1.90;;;25.20;57.20;;;;;;4984748;28;20046;-83
2022/08/06 10:08:07;;;;;;;5.88;5.32;;;25.80;54.00;;;;;;4977467;28;20060;-86
2022/08/06 10:10:51;;;;;;;3.38;1.70;;;26.40;51.50;;;;;;5007668;28;20053;-82
2022/08/06 10:13:27;;;;;;;13.82;12.60;;;26.90;48.00;;;;;;5003016;28;20133;-83
2022/08/06 10:15:55;;;;;;;5.07;2.40;;;26.80;47.60;;;;;;4986050;28;20045;-83
2022/08/06 10:18:42;;;;;;;3.22;1.95;;;26.70;49.30;;;;;;4977700;28;20504;-85
2022/08/06 10:21:13;;;;;;;3.45;2.47;;;26.00;49.50;;;;;;4953790;28;20180;-84
2022/08/06 10:23:41;;;;;;;4.07;1.92;;;25.30;48.40;;;;;;4983365;28;20050;-84
2022/08/06 10:26:13;;;;;;;2.42;1.60;;;25.00;50.00;;;;;;4999657;28;20138;-84
2022/08/06 10:28:43;;;;;;;5.80;2.47;;;24.60;50.30;;;;;;4999959;28;20049;-83
2022/08/06 10:31:12;;;;;;;5.32;2.47;;;25.40;51.70;;;;;;4985699;28;20053;-83
2022/08/06 10:34:12;;;;;;;3.60;1.85;;;26.30;49.90;;;;;;4972862;28;20504;-81
2022/08/06 10:36:45;;;;;;;3.58;1.98;;;26.80;49.80;;;;;;4989683;28;20141;-82
2022/08/06 10:39:13;;;;;;;3.92;1.60;;;27.70;49.30;;;;;;4960850;28;20053;-82
2022/08/06 10:41:44;;;;;;;3.75;1.65;;;27.80;47.00;;;;;;4950880;28;20731;-82
2022/08/06 10:44:13;;;;;;;3.70;1.50;;;27.40;46.30;;;;;;4998800;28;20041;-82
2022/08/06 10:46:43;;;;;;;4.85;1.70;;;27.00;46.70;;;;;;4980810;28;20626;-83
2022/08/06 10:49:10;;;;;;;36.40;32.85;;;26.20;46.80;;;;;;4947489;28;20054;-78
2022/08/06 10:51:37;;;;;;;20.17;18.20;;;25.80;48.50;;;;;;4962198;28;20060;-82
2022/08/06 10:54:06;;;;;;;13.95;12.55;;;25.20;49.60;;;;;;4929917;28;20101;-82
2022/08/06 10:56:35;;;;;;;6.43;5.50;;;24.90;51.10;;;;;;4978926;28;20045;-81
2022/08/06 10:59:02;;;;;;;3.40;1.90;;;24.30;52.00;;;;;;4983798;28;20080;-81
2022/08/06 11:01:47;;;;;;;2.85;1.88;;;24.00;53.10;;;;;;4952124;28;20045;-83
2022/08/06 11:04:21;;;;;;;4.32;1.70;;;23.50;55.10;;;;;;4966836;28;20729;-80
2022/08/06 11:07:05;;;;;;;3.40;1.85;;;23.50;56.30;;;;;;4951403;28;20050;-81
2022/08/06 11:09:43;;;;;;;3.42;1.98;;;23.30;59.40;;;;;;4979253;28;20137;-81
2022/08/06 11:12:36;;;;;;;4.72;1.73;;;23.30;60.60;;;;;;4967383;28;20650;-81
2022/08/06 11:15:05;;;;;;;3.75;1.63;;;23.10;65.20;;;;;;4941669;28;20050;-81
2022/08/06 11:17:51;;;;;;;3.78;1.60;;;22.80;73.30;;;;;;4981894;28;20131;-81
2022/08/06 11:20:32;;;;;;;3.67;1.60;;;23.10;76.00;;;;;;4979951;28;20133;-81
2022/08/06 11:22:59;;;;;;;;;;;23.50;78.80;;;;;;4998787;28;20564;-80
2022/08/06 11:25:46;;;;;;;3.65;1.30;;;23.60;78.70;;;;;;4981716;28;19932;-80
2022/08/06 11:28:14;;;;;;;3.88;1.30;;;23.70;73.60;;;;;;4978798;28;20060;-81
2022/08/06 11:30:49;;;;;;;3.35;1.33;;;23.70;71.40;;;;;;4943670;28;20038;-82
2022/08/06 11:33:20;;;;;;;11.50;9.65;;;23.50;74.20;;;;;;4980318;28;20085;-86
2022/08/06 11:35:50;;;;;;;3.80;2.30;;;23.50;75.60;;;;;;4964632;28;20045;-83
2022/08/06 11:38:42;;;;;;;2.47;1.33;;;23.30;70.60;;;;;;4964628;28;20041;-83
2022/08/06 11:41:12;;;;;;;3.45;2.20;;;23.10;70.30;;;;;;5003219;28;20049;-80
2022/08/06 11:43:53;;;;;;;5.40;1.75;;;23.10;69.50;;;;;;4967159;28;20045;-87
2022/08/06 11:46:25;;;;;;;3.58;1.33;;;23.20;69.00;;;;;;4952437;28;20112;-86
2022/08/06 11:49:02;;;;;;;2.30;1.58;;;23.30;66.80;;;;;;4965989;28;20052;-87
2022/08/06 11:51:57;;;;;;;5.10;1.80;;;23.50;61.90;;;;;;4934976;28;20046;-86
2022/08/06 11:54:27;;;;;;;3.22;1.60;;;24.30;61.20;;;;;;5010014;28;20041;-86
2022/08/06 11:57:04;;;;;;;3.53;1.30;;;24.50;57.20;;;;;;4968693;28;20066;-86
2022/08/06 11:59:49;;;;;;;2.38;1.50;;;24.90;57.50;;;;;;4986087;28;20053;-87
2022/08/06 12:02:42;;;;;;;4.85;3.42;;;24.60;55.80;;;;;;4968197;28;20053;-86
2022/08/06 12:05:32;;;;;;;2.97;1.90;;;24.60;54.00;;;;;;4963296;28;20537;-87
2022/08/06 12:08:21;;;;;;;3.10;1.50;;;24.80;55.30;;;;;;4950730;28;20053;-87
2022/08/06 12:11:28;;;;;;;4.72;1.45;;;24.50;52.30;;;;;;4919906;28;20046;-87
2022/08/06 12:13:55;;;;;;;3.25;1.50;;;24.60;53.70;;;;;;4967606;28;20057;-87
2022/08/06 12:16:37;;;;;;;1.70;1.48;;;24.50;54.20;;;;;;4981236;28;20172;-87
2022/08/06 12:19:06;;;;;;;3.35;1.50;;;25.00;53.40;;;;;;4976803;28;20074;-87
2022/08/06 12:21:32;;;;;;;2.95;1.60;;;25.10;53.40;;;;;;4967070;28;20050;-87
2022/08/06 12:23:59;;;;;;;3.35;1.50;;;25.10;52.90;;;;;;4980341;28;20041;-87
2022/08/06 12:26:31;;;;;;;4.43;1.90;;;25.10;53.90;;;;;;4970437;28;20053;-86
2022/08/06 12:29:02;;;;;;;2.85;1.45;;;25.40;54.50;;;;;;4953600;28;20042;-86
2022/08/06 12:31:34;;;;;;;3.17;1.60;;;25.20;51.80;;;;;;4981118;28;20061;-87
2022/08/06 12:34:00;;;;;;;3.95;1.83;;;24.90;52.50;;;;;;4956913;28;20049;-86
2022/08/06 12:36:29;;;;;;;3.67;1.70;;;24.70;53.20;;;;;;5006220;28;20605;-85
2022/08/06 12:38:57;;;;;;;2.45;1.50;;;24.70;53.50;;;;;;4972848;28;20057;-87
2022/08/06 12:41:31;;;;;;;1.98;1.40;;;24.80;54.30;;;;;;4968025;28;20057;-86
2022/08/06 12:43:57;;;;;;;4.85;2.42;;;25.10;54.40;;;;;;5015967;28;20085;-86
2022/08/06 12:46:24;;;;;;;3.72;1.95;;;25.50;53.90;;;;;;4987494;28;20045;-86
2022/08/06 12:48:51;;;;;;;4.05;1.73;;;26.00;53.20;;;;;;4972395;28;20086;-86
2022/08/06 12:51:18;;;;;;;2.85;1.80;;;26.40;52.40;;;;;;4988895;28;20095;-86
2022/08/06 12:53:53;;;;;;;3.85;2.72;;;26.90;51.90;;;;;;4953925;28;20053;-87
2022/08/06 12:56:22;;;;;;;2.00;1.35;;;27.10;50.00;;;;;;4987960;28;20038;-87
2022/08/06 12:58:50;;;;;;;3.33;1.92;;;28.20;49.20;;;;;;4965402;28;20049;-87
2022/08/06 13:01:26;;;;;;;3.63;2.28;;;27.40;48.10;;;;;;4953865;28;20130;-87
2022/08/06 13:03:55;;;;;;;2.40;1.60;;;26.80;48.80;;;;;;4953379;28;20056;-86
2022/08/06 13:06:24;;;;;;;3.72;2.22;;;26.50;48.60;;;;;;4938961;28;20057;-87
2022/08/06 13:08:52;;;;;;;4.28;1.60;;;26.00;49.10;;;;;;4940624;28;20058;-87
2022/08/06 13:11:18;;;;;;;3.83;1.80;;;25.70;49.10;;;;;;4956927;28;20875;-86
2022/08/06 13:13:50;;;;;;;3.05;1.65;;;25.30;49.40;;;;;;4953640;28;20096;-87